createdAt,value
2022-09-12T09:02:50.050Z,99.90
2022-09-12T09:07:56.408Z,14.90
2022-09-12T09:13:47.834Z,15.20
2022-09-12T09:18:55.521Z,16.10
2022-09-12T09:24:14.862Z,17.70
2022-09-12T09:29:45.723Z,18.70
2022-09-12T09:34:51.853Z,19.30
2022-09-12T09:40:13.283Z,20.30
2022-09-12T09:45:26.370Z,20.90
2022-09-12T09:50:31.677Z,21.70
2022-09-12T09:55:40.284Z,22.50
2022-09-12T10:00:46.240Z,23.70
2022-09-12T10:05:51.392Z,24.30
2022-09-12T10:11:09.660Z,25.50
2022-09-12T10:16:26.367Z,26.20
2022-09-12T10:21:33.887Z,26.90
2022-09-12T10:26:42.079Z,26.70
2022-09-12T10:32:00.346Z,28.40
2022-09-12T10:37:11.478Z,29.20
2022-09-12T10:42:21.539Z,29.00
2022-09-12T10:47:33.732Z,38.70
2022-09-12T10:52:39.022Z,30.20
2022-09-12T10:57:52.731Z,32.10
2022-09-12T11:03:24.194Z,35.20
2022-09-12T11:08:41.671Z,36.30
2022-09-12T11:14:14.442Z,37.70
2022-09-12T11:19:53.693Z,38.70
2022-09-12T11:25:20.749Z,40.60
2022-09-12T11:30:26.058Z,40.80
2022-09-12T11:35:32.492Z,41.20
2022-09-12T11:40:50.499Z,43.40
2022-09-12T11:45:56.080Z,44.30
2022-09-12T11:51:04.615Z,47.30
2022-09-12T11:56:22.222Z,47.30
2022-09-12T12:01:43.897Z,47.60
2022-09-12T12:07:09.023Z,49.50
2022-09-12T12:12:22.200Z,51.10
2022-09-12T12:17:29.648Z,51.60
2022-09-12T12:22:35.278Z,52.20
2022-09-12T12:27:52.684Z,52.60
2022-09-12T12:33:14.649Z,55.30
2022-09-12T12:38:47.389Z,56.40
2022-09-12T12:43:59.247Z,59.00
2022-09-12T12:49:13.176Z,59.20
2022-09-12T12:54:33.601Z,60.60
2022-09-12T12:59:39.018Z,63.00
2022-09-12T13:04:48.073Z,62.10
2022-09-12T13:09:54.733Z,65.40
2022-09-12T13:15:03.186Z,67.30
2022-09-12T13:20:30.915Z,69.00
2022-09-12T13:25:38.411Z,70.10
2022-09-12T13:31:12.122Z,70.20
2022-09-12T13:36:26.878Z,70.60
2022-09-12T13:42:09.447Z,72.40
2022-09-12T13:47:25.208Z,73.40
2022-09-12T13:52:37.597Z,74.80
2022-09-12T13:57:43.986Z,77.80
2022-09-12T14:02:50.852Z,80.60
2022-09-12T14:08:08.426Z,83.40
2022-09-12T14:13:22.183Z,87.90
2022-09-12T14:18:30.399Z,88.40
2022-09-12T14:23:38.094Z,90.20
2022-09-12T14:28:45.013Z,90.50
2022-09-12T14:33:53.111Z,91.30
2022-09-12T14:39:06.898Z,98.00
2022-09-12T14:44:32.728Z,93.00
2022-09-12T14:49:38.730Z,94.00
2022-09-12T14:54:45.893Z,95.00
2022-09-12T14:59:52.519Z,96.30
2022-09-12T15:05:27.886Z,97.60
2022-09-12T15:10:37.994Z,98.60
2022-09-12T15:15:45.990Z,99.90
2022-09-12T15:20:54.433Z,99.90
2022-09-12T15:25:59.714Z,99.90
2022-09-12T15:31:29.474Z,99.90
2022-09-12T15:36:35.036Z,99.90
2022-09-12T15:41:40.769Z,99.90
2022-09-12T15:46:46.434Z,99.90
2022-09-12T15:51:51.679Z,99.90
2022-09-12T15:56:56.918Z,99.90
2022-09-12T16:02:04.204Z,99.90
2022-09-12T16:07:09.990Z,99.90
2022-09-12T16:12:15.090Z,99.90
2022-09-12T16:17:20.207Z,99.90
2022-09-12T16:22:25.777Z,99.90
2022-09-12T16:27:31.062Z,99.90
2022-09-12T16:32:36.137Z,99.90
2022-09-12T16:37:41.789Z,99.90
2022-09-12T16:42:47.583Z,99.90
2022-09-12T16:47:52.655Z,99.90
2022-09-12T16:52:57.760Z,99.90
2022-09-12T16:58:02.928Z,99.90
2022-09-12T17:03:08.531Z,99.90
2022-09-12T17:08:13.790Z,99.90
2022-09-12T17:13:18.417Z,99.90
2022-09-12T17:18:23.911Z,99.90
2022-09-12T17:23:28.668Z,99.90
2022-09-12T17:28:34.537Z,99.90
2022-09-12T17:33:41.157Z,99.90
2022-09-12T17:38:48.102Z,99.90
2022-09-12T17:43:58.060Z,99.90
2022-09-12T17:49:04.116Z,99.90
2022-09-12T17:54:15.534Z,99.90
2022-09-12T17:59:26.236Z,99.90
2022-09-12T18:04:31.345Z,99.90
2022-09-12T18:09:37.922Z,99.90
2022-09-12T18:14:43.488Z,99.90
2022-09-12T18:19:54.278Z,99.90
2022-09-12T18:24:59.772Z,99.90
2022-09-12T18:30:20.716Z,99.90
2022-09-12T18:35:26.987Z,99.90
2022-09-12T18:40:32.201Z,99.90
2022-09-12T18:45:37.487Z,99.90
2022-09-12T18:50:42.673Z,99.90
2022-09-12T18:55:47.893Z,99.90
2022-09-12T19:00:53.323Z,99.90
2022-09-12T19:05:58.362Z,99.90
2022-09-12T19:11:03.435Z,99.90
2022-09-12T19:16:10.995Z,99.90
2022-09-12T19:21:23.834Z,99.90
2022-09-12T19:26:29.567Z,99.90
2022-09-12T19:31:34.605Z,99.90
2022-09-12T19:36:45.480Z,99.90
2022-09-12T19:41:51.660Z,99.90
2022-09-12T19:46:57.822Z,99.90
2022-09-12T19:52:02.858Z,99.90
2022-09-12T19:57:08.409Z,99.90
2022-09-12T20:02:13.569Z,99.90
2022-09-12T20:07:19.114Z,99.90
2022-09-12T20:12:24.017Z,99.90
2022-09-12T20:17:29.301Z,99.90
2022-09-12T20:22:38.040Z,99.90
2022-09-12T20:27:45.514Z,99.90
2022-09-12T20:32:51.845Z,99.90
2022-09-12T20:37:57.172Z,99.90
2022-09-12T20:43:02.448Z,99.90
2022-09-12T20:48:07.163Z,99.90
2022-09-12T20:53:12.226Z,99.90
2022-09-12T20:58:24.361Z,99.90
2022-09-12T21:03:29.478Z,99.90
2022-09-12T21:08:35.206Z,99.90
2022-09-12T21:13:41.275Z,99.90
2022-09-12T21:18:47.237Z,99.90
2022-09-12T21:23:52.542Z,99.90
2022-09-12T21:28:57.930Z,99.90
2022-09-12T21:34:03.228Z,99.90
2022-09-12T21:39:08.761Z,99.90
2022-09-12T21:44:13.467Z,99.90
2022-09-12T21:49:18.651Z,99.90
2022-09-12T21:54:23.825Z,99.90
2022-09-12T21:59:28.941Z,99.90
2022-09-12T22:04:34.411Z,99.90
2022-09-12T22:09:39.559Z,99.90
2022-09-12T22:14:44.881Z,99.90
2022-09-12T22:19:50.169Z,99.90
2022-09-12T22:24:55.349Z,99.90
2022-09-12T22:30:00.769Z,99.90
2022-09-12T22:35:06.740Z,99.90
2022-09-12T22:40:13.473Z,99.90
2022-09-12T22:45:20.656Z,99.90
2022-09-12T22:50:25.666Z,99.90
2022-09-12T22:55:32.023Z,99.90
2022-09-12T23:00:37.745Z,99.90
2022-09-12T23:05:43.300Z,99.90
2022-09-12T23:10:48.532Z,99.90
2022-09-12T23:16:02.552Z,99.90
2022-09-12T23:21:10.689Z,99.90
2022-09-12T23:26:18.832Z,99.90
2022-09-12T23:31:33.322Z,99.90
2022-09-12T23:36:38.767Z,99.90
2022-09-12T23:41:44.078Z,99.90
2022-09-12T23:46:49.243Z,99.90
2022-09-12T23:51:54.413Z,99.90
2022-09-12T23:56:59.524Z,99.90
